KFSK/FSK METAR and TAF weather

Enter ICAO airport designator
Station Type Date Time Source
KFSK METAR 2024/07/23 17:55 UTC NOAA

KFSK 231755Z AUTO 05005KT 10SM CLR 29/18 A3009 RMK AO2 T02940180 10298 20163


Station Type Date Time Source
KFSK Decoded METAR 2024/07/23 17:55 UTC NOAA

Station name not available
Jul 23, 2024 - 01:55 PM EDT / 2024.07.23 1755 UTC
Wind: from the NE (050 degrees) at 6 MPH (5 KT):0
Visibility: 10 mile(s):0
Sky conditions: clear
Temperature: 84.9 F (29.4 C)
Dew Point: 64.4 F (18.0 C)
Relative Humidity: 50%
Pressure (altimeter): 30.09 in. Hg (1018 hPa)
ob: KFSK 231755Z AUTO 05005KT 10SM CLR 29/18 A3009 RMK AO2 T02940180 10298 20163
cycle: 18

Station Type Date Time Source
KFSK TAF UTC NOAA

Error!

Example: see airport list